Time;durP1;ratioP1;P1;durP2;ratioP2;P2;SDS_P1;SDS_P2;PMS_P1;PMS_P2;Temp;Humidity;BMP_temperature;BMP_pressure;BME280_temperature;BME280_humidity;BME280_pressure;Samples;Min_cycle;Max_cycle;Signal;HPM_P1;HPM_P2
2022/08/03 00:01:40;;;;;;;19.98;14.52;;;;;;;;;;5031901;28;20034;-62
2022/08/03 00:04:06;;;;;;;18.10;14.63;;;;;;;;;;5033911;28;20026;-63
2022/08/03 00:06:33;;;;;;;20.30;15.13;;;;;;;;;;5032958;28;20030;-63
2022/08/03 00:08:59;;;;;;;16.92;14.65;;;;;;;;;;5033061;28;20029;-61
2022/08/03 00:11:25;;;;;;;19.25;14.88;;;;;;;;;;5032669;28;20670;-61
2022/08/03 00:13:51;;;;;;;17.30;14.85;;;;;;;;;;5033837;28;20547;-62
2022/08/03 00:16:17;;;;;;;18.55;15.02;;;;;;;;;;5033836;28;20080;-63
2022/08/03 00:18:43;;;;;;;17.50;14.80;;;;;;;;;;5031946;28;20025;-64
2022/08/03 00:21:10;;;;;;;19.45;15.25;;;;;;;;;;5033860;28;20021;-62
2022/08/03 00:23:36;;;;;;;17.65;15.23;;;;;;;;;;5033714;28;20033;-64
2022/08/03 00:26:02;;;;;;;18.52;15.60;;;;;;;;;;5033981;28;20032;-62
2022/08/03 00:28:28;;;;;;;17.23;15.15;;;;;;;;;;5033085;28;20026;-62
2022/08/03 00:30:54;;;;;;;19.85;15.20;;;;;;;;;;5033806;28;20029;-61
2022/08/03 00:33:21;;;;;;;17.85;15.68;;;;;;;;;;5032564;28;20072;-61
2022/08/03 00:35:47;;;;;;;16.90;14.90;;;;;;;;;;5033864;28;20489;-61
2022/08/03 00:38:13;;;;;;;19.35;15.93;;;;;;;;;;5033051;28;20072;-62
2022/08/03 00:40:39;;;;;;;17.98;15.35;;;;;;;;;;5033822;28;20021;-61
2022/08/03 00:43:06;;;;;;;17.70;15.30;;;;;;;;;;5033478;28;20026;-63
2022/08/03 00:45:33;;;;;;;18.35;15.98;;;;;;;;;;5033619;28;20022;-62
2022/08/03 00:48:00;;;;;;;18.83;15.32;;;;;;;;;;5032660;28;20039;-63
2022/08/03 00:50:27;;;;;;;17.85;15.43;;;;;;;;;;5033381;28;20028;-60
2022/08/03 00:52:54;;;;;;;18.30;16.00;;;;;;;;;;5032660;28;20028;-63
2022/08/03 00:55:20;;;;;;;18.23;15.35;;;;;;;;;;5033910;28;20080;-62
2022/08/03 00:57:46;;;;;;;18.92;15.40;;;;;;;;;;5033622;28;20049;-62
2022/08/03 01:00:14;;;;;;;18.75;15.98;;;;;;;;;;5032034;28;20021;-62
2022/08/03 01:02:40;;;;;;;17.80;15.18;;;;;;;;;;5032863;28;20036;-62
2022/08/03 01:05:06;;;;;;;19.98;16.08;;;;;;;;;;5033103;28;20026;-62
2022/08/03 01:07:35;;;;;;;18.92;16.13;;;;;;;;;;5032263;28;20061;-62
2022/08/03 01:10:03;;;;;;;18.77;15.25;;;;;;;;;;5033194;28;20025;-61
2022/08/03 01:12:43;;;;;;;19.02;15.45;;;;;;;;;;5032964;28;20033;-61
2022/08/03 01:15:12;;;;;;;18.70;15.40;;;;;;;;;;5032656;28;20032;-64
2022/08/03 01:18:00;;;;;;;18.95;16.35;;;;;;;;;;5032136;28;20021;-62
2022/08/03 01:20:30;;;;;;;17.98;16.02;;;;;;;;;;5032698;28;20022;-61
2022/08/03 01:22:56;;;;;;;17.88;15.98;;;;;;;;;;5032946;28;20024;-62
2022/08/03 01:25:35;;;;;;;18.27;15.90;;;;;;;;;;5032602;28;20385;-61
2022/08/03 01:28:16;;;;;;;20.00;16.00;;;;;;;;;;5031855;28;20018;-60
2022/08/03 01:30:43;;;;;;;18.85;16.00;;;;;;;;;;5032489;28;20030;-62
2022/08/03 01:33:13;;;;;;;20.15;16.98;;;;;;;;;;5032571;28;20026;-63
2022/08/03 01:35:59;;;;;;;18.20;15.48;;;;;;;;;;5032734;28;20079;-62
2022/08/03 01:38:28;;;;;;;18.45;15.57;;;;;;;;;;5031866;28;20083;-64
2022/08/03 01:40:55;;;;;;;19.60;16.25;;;;;;;;;;5032323;28;20079;-63
2022/08/03 01:43:26;;;;;;;18.30;16.30;;;;;;;;;;5032313;28;20049;-62
2022/08/03 01:45:54;;;;;;;18.80;16.58;;;;;;;;;;5032530;28;20018;-61
2022/08/03 01:48:21;;;;;;;19.65;16.42;;;;;;;;;;5031663;28;20017;-63
2022/08/03 01:50:48;;;;;;;18.13;16.17;;;;;;;;;;5032125;28;20017;-59
2022/08/03 01:53:15;;;;;;;20.42;16.75;;;;;;;;;;5032170;28;20036;-62
2022/08/03 01:55:42;;;;;;;20.55;16.50;;;;;;;;;;5032083;28;20097;-61
2022/08/03 01:58:09;;;;;;;19.88;16.33;;;;;;;;;;5031768;28;20112;-62
2022/08/03 02:00:36;;;;;;;17.90;16.00;;;;;;;;;;5030799;28;20030;-63
2022/08/03 02:03:04;;;;;;;18.83;16.75;;;;;;;;;;5033164;28;20049;-63
2022/08/03 02:05:31;;;;;;;18.98;16.40;;;;;;;;;;5034743;28;20057;-62
2022/08/03 02:07:58;;;;;;;19.35;17.00;;;;;;;;;;5031762;28;20036;-63
2022/08/03 02:10:25;;;;;;;20.02;16.23;;;;;;;;;;5033549;28;20595;-61
2022/08/03 02:12:52;;;;;;;18.48;16.40;;;;;;;;;;5034643;28;20048;-62
2022/08/03 02:15:18;;;;;;;19.27;16.38;;;;;;;;;;5035866;28;20025;-60
2022/08/03 02:17:45;;;;;;;19.70;16.80;;;;;;;;;;5035570;28;20100;-61
2022/08/03 02:20:12;;;;;;;19.55;17.33;;;;;;;;;;5033236;28;20156;-64
2022/08/03 02:22:42;;;;;;;20.45;17.50;;;;;;;;;;5031121;28;20022;-62
2022/08/03 02:25:09;;;;;;;18.33;16.33;;;;;;;;;;5032494;28;20021;-62
2022/08/03 02:27:36;;;;;;;20.10;17.27;;;;;;;;;;5035440;28;20099;-61
2022/08/03 02:30:04;;;;;;;21.85;17.50;;;;;;;;;;5036166;28;20029;-61
2022/08/03 02:32:33;;;;;;;21.20;17.67;;;;;;;;;;5036037;28;20490;-63
2022/08/03 02:35:00;;;;;;;21.88;17.70;;;;;;;;;;5034689;28;20032;-61
2022/08/03 02:37:28;;;;;;;20.00;17.27;;;;;;;;;;5033868;28;20026;-62
2022/08/03 02:39:57;;;;;;;19.63;17.52;;;;;;;;;;5036148;28;20025;-61
2022/08/03 02:42:24;;;;;;;22.90;17.65;;;;;;;;;;5035863;28;20030;-60
2022/08/03 02:44:51;;;;;;;20.70;17.83;;;;;;;;;;5035909;28;20359;-63
2022/08/03 02:47:19;;;;;;;20.23;18.05;;;;;;;;;;5034955;28;20029;-62
2022/08/03 02:49:46;;;;;;;20.17;18.02;;;;;;;;;;5035594;28;20021;-59
2022/08/03 02:52:13;;;;;;;20.70;18.45;;;;;;;;;;5035392;28;20474;-63
2022/08/03 02:54:39;;;;;;;21.27;18.00;;;;;;;;;;5035616;28;20029;-63
2022/08/03 02:57:09;;;;;;;20.85;18.70;;;;;;;;;;5035454;28;20022;-59
2022/08/03 02:59:36;;;;;;;21.40;18.63;;;;;;;;;;5045582;28;20025;-63
2022/08/03 03:02:02;;;;;;;21.35;18.80;;;;;;;;;;5044110;28;20060;-63
2022/08/03 03:04:29;;;;;;;22.60;19.60;;;;;;;;;;5035667;28;20390;-63
2022/08/03 03:06:56;;;;;;;22.80;20.23;;;;;;;;;;5035470;28;20101;-64
2022/08/03 03:09:22;;;;;;;23.20;20.63;;;;;;;;;;5034471;28;20029;-63
2022/08/03 03:11:49;;;;;;;22.73;20.02;;;;;;;;;;5035163;28;20025;-63
2022/08/03 03:14:15;;;;;;;22.90;20.48;;;;;;;;;;5035056;28;20087;-62
2022/08/03 03:16:41;;;;;;;21.70;19.40;;;;;;;;;;5035283;28;20474;-62
2022/08/03 03:19:08;;;;;;;22.30;19.25;;;;;;;;;;5034319;28;20013;-62
2022/08/03 03:21:34;;;;;;;21.45;18.60;;;;;;;;;;5035168;28;20021;-62
2022/08/03 03:24:01;;;;;;;24.75;19.35;;;;;;;;;;5035048;28;20036;-60
2022/08/03 03:26:27;;;;;;;21.48;18.63;;;;;;;;;;5033762;28;20029;-60
2022/08/03 03:28:53;;;;;;;21.08;18.48;;;;;;;;;;5032760;28;20053;-62
2022/08/03 03:31:19;;;;;;;24.23;18.85;;;;;;;;;;5033623;28;20033;-62
2022/08/03 03:33:46;;;;;;;21.40;19.10;;;;;;;;;;5035131;28;20547;-62
2022/08/03 03:36:12;;;;;;;23.35;18.75;;;;;;;;;;5034316;28;20478;-61
2022/08/03 03:38:38;;;;;;;21.08;18.77;;;;;;;;;;5032496;28;20033;-61
2022/08/03 03:41:04;;;;;;;20.73;18.50;;;;;;;;;;5034836;28;20254;-64
2022/08/03 03:43:30;;;;;;;21.38;18.65;;;;;;;;;;5034550;28;20033;-64
2022/08/03 03:45:57;;;;;;;21.88;19.50;;;;;;;;;;5034571;28;20052;-63
2022/08/03 03:48:23;;;;;;;22.85;20.17;;;;;;;;;;5033760;28;20038;-63
2022/08/03 03:50:50;;;;;;;22.50;19.35;;;;;;;;;;5033163;28;20120;-63
2022/08/03 03:53:16;;;;;;;25.67;21.30;;;;;;;;;;5034327;28;20048;-63
2022/08/03 03:55:42;;;;;;;24.00;19.63;;;;;;;;;;5034269;28;20113;-63
2022/08/03 03:58:08;;;;;;;22.48;19.70;;;;;;;;;;5033666;28;20026;-63
2022/08/03 04:00:34;;;;;;;20.85;18.55;;;;;;;;;;5033977;28;20172;-63
2022/08/03 04:03:00;;;;;;;22.02;19.15;;;;;;;;;;5034608;28;20100;-63
2022/08/03 04:11:00;;;;;;;21.60;18.65;;;;;;;;;;5034015;28;20064;-63
2022/08/03 04:13:28;;;;;;;20.58;18.38;;;;;;;;;;5033919;28;20021;-63
2022/08/03 04:15:55;;;;;;;22.23;18.98;;;;;;;;;;5034261;28;20048;-63
2022/08/03 04:18:21;;;;;;;21.08;18.75;;;;;;;;;;5033165;28;20176;-63
2022/08/03 04:20:48;;;;;;;21.00;18.48;;;;;;;;;;5033809;28;20029;-64
2022/08/03 04:23:16;;;;;;;23.67;19.60;;;;;;;;;;5033695;28;20029;-63
2022/08/03 04:25:42;;;;;;;22.48;19.30;;;;;;;;;;5033538;28;20048;-64
2022/08/03 04:28:09;;;;;;;22.95;19.80;;;;;;;;;;5032809;28;20485;-64
2022/08/03 04:30:37;;;;;;;23.85;19.33;;;;;;;;;;5033807;28;20429;-63
2022/08/03 04:33:03;;;;;;;21.40;18.55;;;;;;;;;;5033680;28;20096;-63
2022/08/03 04:35:31;;;;;;;22.83;19.83;;;;;;;;;;5033527;28;20466;-63
2022/08/03 04:37:58;;;;;;;23.75;21.10;;;;;;;;;;5032706;28;20024;-63
2022/08/03 04:40:27;;;;;;;24.77;20.40;;;;;;;;;;5033265;28;20031;-62
2022/08/03 04:42:55;;;;;;;25.17;22.48;;;;;;;;;;5033262;28;20100;-63
2022/08/03 04:45:21;;;;;;;27.67;22.75;;;;;;;;;;5033396;28;20033;-63
2022/08/03 04:47:47;;;;;;;23.58;20.92;;;;;;;;;;5032165;28;20033;-64
2022/08/03 04:50:13;;;;;;;22.98;20.05;;;;;;;;;;5033278;28;20377;-63
2022/08/03 04:52:39;;;;;;;28.10;20.27;;;;;;;;;;5031948;28;20377;-58
2022/08/03 04:55:05;;;;;;;22.70;19.92;;;;;;;;;;5033214;28;20065;-63
2022/08/03 04:57:31;;;;;;;25.98;22.25;;;;;;;;;;5032341;28;20025;-61
2022/08/03 04:59:57;;;;;;;22.80;19.40;;;;;;;;;;5033284;28;20026;-63
2022/08/03 05:02:23;;;;;;;21.77;19.00;;;;;;;;;;5032849;28;20036;-63
2022/08/03 05:04:49;;;;;;;22.80;19.10;;;;;;;;;;5035601;28;20022;-64
2022/08/03 05:07:16;;;;;;;22.65;18.95;;;;;;;;;;5044195;28;20032;-63
2022/08/03 05:09:42;;;;;;;22.92;19.00;;;;;;;;;;5035077;28;20104;-63
2022/08/03 05:12:08;;;;;;;23.65;19.73;;;;;;;;;;5025092;28;20076;-64
2022/08/03 05:14:37;;;;;;;22.48;19.25;;;;;;;;;;5016094;28;20132;-63
2022/08/03 05:17:03;;;;;;;23.55;20.63;;;;;;;;;;5012854;28;20022;-62
2022/08/03 05:19:29;;;;;;;22.17;18.90;;;;;;;;;;5030629;28;20032;-63
2022/08/03 05:21:55;;;;;;;23.67;19.58;;;;;;;;;;5032502;28;20175;-62
2022/08/03 05:24:21;;;;;;;21.05;18.73;;;;;;;;;;5030918;28;20385;-63
2022/08/03 05:26:47;;;;;;;22.95;19.63;;;;;;;;;;5021074;28;20121;-63
2022/08/03 05:29:13;;;;;;;24.33;19.23;;;;;;;;;;5011917;28;20497;-63
2022/08/03 05:31:39;;;;;;;24.27;18.80;;;;;;;;;;5012866;28;20022;-63
2022/08/03 05:34:05;;;;;;;23.15;18.45;;;;;;;;;;5011766;28;20026;-64
2022/08/03 05:36:31;;;;;;;25.45;19.35;;;;;;;;;;5012449;28;20022;-63
2022/08/03 05:38:57;;;;;;;22.42;18.42;;;;;;;;;;5010480;28;20026;-63
2022/08/03 05:41:23;;;;;;;23.55;19.92;;;;;;;;;;5012597;28;20029;-62
2022/08/03 05:43:50;;;;;;;21.85;19.00;;;;;;;;;;5022129;28;20026;-63
2022/08/03 05:46:16;;;;;;;23.35;19.60;;;;;;;;;;5032180;28;20030;-63
2022/08/03 05:48:42;;;;;;;21.67;18.98;;;;;;;;;;5029963;28;20044;-64
2022/08/03 05:51:09;;;;;;;22.17;18.85;;;;;;;;;;5030586;28;20025;-63
2022/08/03 05:53:36;;;;;;;22.30;19.35;;;;;;;;;;5031889;28;20018;-63
2022/08/03 05:56:03;;;;;;;24.25;19.17;;;;;;;;;;5032041;28;20026;-63
2022/08/03 05:58:29;;;;;;;20.85;18.65;;;;;;;;;;5031204;28;20104;-65
2022/08/03 06:00:55;;;;;;;22.90;18.23;;;;;;;;;;5031572;28;20048;-63
2022/08/03 06:03:21;;;;;;;21.65;18.58;;;;;;;;;;5031718;28;20517;-63
2022/08/03 06:05:47;;;;;;;21.27;17.70;;;;;;;;;;5031935;28;20043;-64
2022/08/03 06:08:13;;;;;;;22.88;17.95;;;;;;;;;;5031247;28;20041;-63
2022/08/03 06:10:39;;;;;;;21.15;18.15;;;;;;;;;;5031217;28;20049;-63
2022/08/03 06:13:05;;;;;;;21.98;17.50;;;;;;;;;;5031600;28;20342;-63
2022/08/03 06:15:32;;;;;;;22.63;17.85;;;;;;;;;;5031388;28;20029;-63
2022/08/03 06:17:58;;;;;;;20.35;18.00;;;;;;;;;;5030692;28;20449;-63
2022/08/03 06:20:24;;;;;;;22.50;17.42;;;;;;;;;;5031410;28;20117;-63
2022/08/03 06:22:50;;;;;;;21.90;17.83;;;;;;;;;;5031369;28;20030;-63
2022/08/03 06:25:18;;;;;;;22.30;17.77;;;;;;;;;;5031085;28;20482;-63
2022/08/03 06:27:44;;;;;;;21.48;18.38;;;;;;;;;;5030607;28;20227;-63
2022/08/03 06:30:11;;;;;;;21.85;18.10;;;;;;;;;;5031590;28;20367;-63
2022/08/03 06:32:37;;;;;;;22.08;18.85;;;;;;;;;;5030071;28;20021;-63
2022/08/03 06:35:05;;;;;;;20.50;17.95;;;;;;;;;;5031785;28;20021;-64
2022/08/03 06:37:31;;;;;;;21.48;17.98;;;;;;;;;;5030886;28;20135;-62
2022/08/03 06:39:57;;;;;;;21.15;18.05;;;;;;;;;;5031602;28;20030;-63
2022/08/03 06:42:23;;;;;;;22.83;18.05;;;;;;;;;;5031206;28;20374;-64
2022/08/03 06:44:50;;;;;;;22.42;18.20;;;;;;;;;;5031510;28;20032;-63
2022/08/03 06:47:16;;;;;;;20.90;17.58;;;;;;;;;;5030619;28;20103;-62
2022/08/03 06:49:42;;;;;;;23.70;17.73;;;;;;;;;;5030299;28;20064;-60
2022/08/03 06:52:08;;;;;;;22.67;17.65;;;;;;;;;;5031063;28;20025;-63
2022/08/03 06:54:34;;;;;;;23.33;17.70;;;;;;;;;;5031235;28;20033;-63
2022/08/03 06:57:00;;;;;;;22.00;17.52;;;;;;;;;;5031140;28;20387;-64
2022/08/03 06:59:26;;;;;;;21.52;17.83;;;;;;;;;;5030168;28;20022;-63
2022/08/03 07:01:52;;;;;;;20.73;18.02;;;;;;;;;;5031095;28;20048;-63
2022/08/03 07:04:18;;;;;;;23.13;17.88;;;;;;;;;;5031326;28;20099;-64
2022/08/03 07:06:44;;;;;;;21.75;18.05;;;;;;;;;;5031053;28;20030;-64
2022/08/03 07:09:10;;;;;;;20.13;17.25;;;;;;;;;;5029227;28;20079;-63
2022/08/03 07:11:36;;;;;;;20.83;17.92;;;;;;;;;;5032005;28;20029;-64
2022/08/03 07:14:03;;;;;;;21.73;17.70;;;;;;;;;;5034835;28;20025;-64
2022/08/03 07:16:29;;;;;;;22.83;18.08;;;;;;;;;;5035165;28;20032;-63
2022/08/03 07:18:55;;;;;;;19.70;17.13;;;;;;;;;;5033955;28;20156;-64
2022/08/03 07:21:21;;;;;;;23.52;17.90;;;;;;;;;;5034650;28;20029;-63
2022/08/03 07:23:47;;;;;;;23.67;17.58;;;;;;;;;;5034655;28;20026;-63
2022/08/03 07:26:13;;;;;;;19.90;17.20;;;;;;;;;;5034754;28;20622;-63
2022/08/03 07:28:39;;;;;;;22.20;18.67;;;;;;;;;;5033759;28;20025;-63
2022/08/03 07:31:05;;;;;;;21.67;18.55;;;;;;;;;;5034670;28;20036;-64
2022/08/03 07:33:31;;;;;;;22.60;18.13;;;;;;;;;;5033194;28;20022;-64
2022/08/03 07:35:57;;;;;;;20.67;17.33;;;;;;;;;;5034385;28;20087;-63
2022/08/03 07:38:23;;;;;;;20.40;17.70;;;;;;;;;;5033491;28;20017;-64
2022/08/03 07:40:49;;;;;;;20.83;18.05;;;;;;;;;;5034040;28;20014;-65
2022/08/03 07:43:16;;;;;;;20.33;17.20;;;;;;;;;;5034536;28;20038;-64
2022/08/03 07:45:42;;;;;;;21.77;17.42;;;;;;;;;;5034477;28;20105;-65
2022/08/03 07:48:08;;;;;;;21.95;17.23;;;;;;;;;;5037354;28;20036;-53
2022/08/03 07:50:34;;;;;;;21.13;17.08;;;;;;;;;;5033208;28;20025;-49
2022/08/03 07:53:00;;;;;;;21.05;17.15;;;;;;;;;;5033908;28;20112;-53
2022/08/03 07:55:27;;;;;;;20.23;17.75;;;;;;;;;;5034095;28;20032;-51
2022/08/03 07:58:08;;;;;;;20.52;17.08;;;;;;;;;;5033407;28;20109;-55
2022/08/03 08:00:35;;;;;;;19.92;16.52;;;;;;;;;;5033965;28;20040;-56
2022/08/03 08:03:01;;;;;;;18.95;16.35;;;;;;;;;;5035454;28;20044;-56
2022/08/03 08:05:28;;;;;;;21.02;16.75;;;;;;;;;;5033953;28;20397;-56
2022/08/03 08:07:54;;;;;;;22.02;17.00;;;;;;;;;;5033292;28;20037;-56
2022/08/03 08:10:20;;;;;;;20.25;17.88;;;;;;;;;;5033964;28;20041;-57
2022/08/03 08:12:47;;;;;;;20.38;16.83;;;;;;;;;;5032246;28;20021;-57
2022/08/03 08:15:13;;;;;;;23.58;16.73;;;;;;;;;;5033660;28;20112;-57
2022/08/03 08:17:46;;;;;;;19.48;16.40;;;;;;;;;;5032741;28;20029;-57
2022/08/03 08:20:14;;;;;;;19.20;16.75;;;;;;;;;;5032133;28;20079;-59
2022/08/03 08:22:41;;;;;;;19.35;16.67;;;;;;;;;;5031746;28;20113;-56
2022/08/03 08:25:07;;;;;;;20.35;17.25;;;;;;;;;;5033436;28;20393;-57
2022/08/03 08:27:33;;;;;;;19.17;16.67;;;;;;;;;;5031211;28;20031;-59
2022/08/03 08:29:59;;;;;;;20.33;16.77;;;;;;;;;;5030424;28;20022;-57
2022/08/03 08:32:25;;;;;;;20.48;16.63;;;;;;;;;;5031966;28;20032;-55
2022/08/03 08:34:52;;;;;;;20.63;16.08;;;;;;;;;;5033088;28;20402;-56
2022/08/03 08:37:18;;;;;;;19.77;16.73;;;;;;;;;;5032564;28;20041;-56
2022/08/03 08:39:44;;;;;;;19.85;16.10;;;;;;;;;;5033297;28;20100;-56
2022/08/03 08:42:10;;;;;;;21.35;16.73;;;;;;;;;;5033486;28;20359;-57
2022/08/03 08:44:36;;;;;;;19.30;16.73;;;;;;;;;;5033202;28;20057;-56
2022/08/03 08:47:03;;;;;;;19.13;16.33;;;;;;;;;;5032977;28;20088;-57
2022/08/03 08:49:29;;;;;;;19.25;16.88;;;;;;;;;;5032418;28;20022;-56
2022/08/03 08:51:56;;;;;;;18.75;16.50;;;;;;;;;;5032776;28;20025;-51
2022/08/03 08:54:22;;;;;;;20.73;16.38;;;;;;;;;;5033036;28;20036;-53
2022/08/03 08:56:51;;;;;;;19.95;16.92;;;;;;;;;;5033230;28;20288;-60
2022/08/03 08:59:17;;;;;;;;;;;;;;;;;;5032577;28;20017;-58
2022/08/03 09:01:43;;;;;;;18.80;16.20;;;;;;;;;;5032580;28;19971;-59
2022/08/03 09:04:09;;;;;;;21.45;16.50;;;;;;;;;;5032641;28;20481;-54
2022/08/03 09:06:35;;;;;;;21.52;17.65;;;;;;;;;;5032728;28;20037;-57
2022/08/03 09:09:02;;;;;;;19.77;16.55;;;;;;;;;;5032146;28;20030;-50
2022/08/03 09:11:27;;;;;;;20.80;16.88;;;;;;;;;;5032461;28;20025;-52
2022/08/03 09:13:54;;;;;;;21.33;16.65;;;;;;;;;;5031198;28;20190;-50
2022/08/03 09:16:21;;;;;;;19.60;16.33;;;;;;;;;;5032282;28;20025;-51
2022/08/03 09:18:49;;;;;;;20.40;16.27;;;;;;;;;;5030386;28;20036;-51
2022/08/03 09:21:17;;;;;;;18.98;16.70;;;;;;;;;;5032337;28;20041;-56
2022/08/03 09:23:47;;;;;;;19.25;16.58;;;;;;;;;;5032492;28;20025;-52
2022/08/03 09:26:27;;;;;;;20.73;16.58;;;;;;;;;;5032561;28;20025;-55
2022/08/03 09:29:13;;;;;;;20.55;16.35;;;;;;;;;;5030762;28;20501;-54
2022/08/03 09:31:43;;;;;;;19.33;16.60;;;;;;;;;;5032186;28;20030;-56
2022/08/03 09:34:10;;;;;;;18.17;16.25;;;;;;;;;;5032004;28;20021;-55
2022/08/03 09:36:39;;;;;;;18.13;16.10;;;;;;;;;;5032300;28;20057;-55
2022/08/03 09:39:09;;;;;;;22.33;16.80;;;;;;;;;;5031174;28;20588;-55
2022/08/03 09:41:35;;;;;;;20.20;16.70;;;;;;;;;;5031879;28;20025;-55
2022/08/03 09:44:01;;;;;;;19.85;16.17;;;;;;;;;;5032168;28;20496;-57
2022/08/03 09:46:30;;;;;;;20.10;16.35;;;;;;;;;;5032144;28;20478;-54
2022/08/03 09:49:09;;;;;;;18.75;15.95;;;;;;;;;;5031284;28;20029;-56
2022/08/03 09:51:35;;;;;;;19.25;16.38;;;;;;;;;;5031898;28;20029;-62
2022/08/03 09:54:03;;;;;;;20.90;16.13;;;;;;;;;;5031360;28;20399;-61
2022/08/03 09:56:46;;;;;;;20.25;16.02;;;;;;;;;;5031719;28;20017;-63
2022/08/03 09:59:12;;;;;;;25.85;16.90;;;;;;;;;;5031223;28;20504;-60
2022/08/03 10:01:41;;;;;;;21.30;15.55;;;;;;;;;;5031840;28;20060;-63
2022/08/03 10:04:15;;;;;;;18.27;15.55;;;;;;;;;;5031801;28;20509;-61
2022/08/03 10:06:43;;;;;;;21.67;16.15;;;;;;;;;;5032031;28;20037;-64
2022/08/03 10:09:10;;;;;;;18.30;15.90;;;;;;;;;;5029654;28;20029;-59
2022/08/03 10:11:36;;;;;;;21.02;16.02;;;;;;;;;;5031658;28;20030;-59
2022/08/03 10:14:09;;;;;;;20.75;16.05;;;;;;;;;;5031579;28;20087;-63
2022/08/03 10:16:37;;;;;;;19.63;16.40;;;;;;;;;;5031780;28;20067;-61
2022/08/03 10:19:03;;;;;;;;;;;;;;;;;;5029735;28;20033;-63
2022/08/03 10:21:32;;;;;;;24.35;16.20;;;;;;;;;;5030137;28;19905;-61
2022/08/03 10:23:59;;;;;;;20.63;16.63;;;;;;;;;;5031214;28;20020;-61
2022/08/03 10:26:29;;;;;;;18.35;15.80;;;;;;;;;;5031566;28;20466;-59
2022/08/03 10:28:57;;;;;;;19.98;16.02;;;;;;;;;;5030354;28;20030;-58
2022/08/03 10:31:23;;;;;;;17.95;16.00;;;;;;;;;;5031517;28;20032;-62
2022/08/03 10:33:50;;;;;;;17.73;15.65;;;;;;;;;;5031366;28;20540;-61
2022/08/03 10:36:17;;;;;;;20.77;16.60;;;;;;;;;;5030272;28;20026;-61
2022/08/03 10:38:45;;;;;;;18.92;16.50;;;;;;;;;;5030819;28;20018;-63
2022/08/03 10:41:12;;;;;;;19.77;16.15;;;;;;;;;;5031274;28;20025;-63
2022/08/03 10:43:46;;;;;;;22.20;16.33;;;;;;;;;;5029895;28;20029;-62
2022/08/03 10:46:13;;;;;;;23.45;16.55;;;;;;;;;;5032400;28;20022;-60
2022/08/03 10:48:39;;;;;;;22.30;16.45;;;;;;;;;;5035770;28;20053;-62
2022/08/03 10:51:06;;;;;;;19.63;17.15;;;;;;;;;;5035368;28;20060;-62
2022/08/03 10:53:42;;;;;;;21.02;16.48;;;;;;;;;;5035061;28;20022;-63
2022/08/03 10:59:12;;;;;;;22.13;16.98;;;;;;;;;;5034588;28;20041;-63
2022/08/03 11:01:54;;;;;;;19.15;16.67;;;;;;;;;;5034974;28;20021;-64
2022/08/03 11:04:22;;;;;;;20.70;16.80;;;;;;;;;;5034999;28;20389;-62
2022/08/03 11:07:08;;;;;;;18.95;16.58;;;;;;;;;;5034796;28;20018;-62
2022/08/03 11:09:47;;;;;;;27.95;17.73;;;;;;;;;;5034095;28;20508;-62
2022/08/03 11:12:27;;;;;;;21.48;16.75;;;;;;;;;;5034535;28;20044;-63
2022/08/03 11:14:54;;;;;;;18.95;16.80;;;;;;;;;;5013382;28;20498;-64
2022/08/03 11:17:20;;;;;;;20.13;16.50;;;;;;;;;;5015043;28;20474;-63
2022/08/03 11:19:48;;;;;;;20.85;16.95;;;;;;;;;;5020762;28;20022;-63
2022/08/03 11:22:15;;;;;;;20.93;17.70;;;;;;;;;;5020659;28;20390;-63
2022/08/03 11:24:50;;;;;;;20.77;17.30;;;;;;;;;;5015988;28;20501;-62
2022/08/03 11:27:25;;;;;;;20.52;17.42;;;;;;;;;;5014245;28;20156;-64
2022/08/03 11:29:57;;;;;;;19.60;17.25;;;;;;;;;;5014793;28;20580;-64
2022/08/03 11:32:47;;;;;;;19.00;16.75;;;;;;;;;;5014913;28;20395;-64
2022/08/03 11:35:13;;;;;;;22.40;17.25;;;;;;;;;;5014620;28;20030;-63
2022/08/03 11:37:54;;;;;;;21.75;17.10;;;;;;;;;;5013850;28;20030;-64
2022/08/03 11:40:39;;;;;;;18.70;16.70;;;;;;;;;;5014413;28;20024;-61
2022/08/03 11:43:06;;;;;;;19.45;17.30;;;;;;;;;;5014431;28;20030;-63
2022/08/03 11:45:33;;;;;;;20.67;16.98;;;;;;;;;;5014112;28;20041;-63
2022/08/03 11:48:01;;;;;;;20.67;17.67;;;;;;;;;;5013692;28;20030;-64
2022/08/03 11:50:27;;;;;;;;;;;;;;;;;;5013571;28;20101;-59
2022/08/03 11:52:53;;;;;;;19.90;16.70;;;;;;;;;;5014044;28;20565;-63
2022/08/03 11:55:20;;;;;;;19.25;17.13;;;;;;;;;;5013934;28;20057;-64
2022/08/03 11:57:47;;;;;;;21.15;17.38;;;;;;;;;;5013185;28;20022;-61
2022/08/03 12:00:23;;;;;;;19.08;17.08;;;;;;;;;;5014120;28;20026;-62
2022/08/03 12:03:09;;;;;;;19.98;17.63;;;;;;;;;;5014072;28;20084;-61
2022/08/03 12:05:39;;;;;;;21.88;17.98;;;;;;;;;;5013986;28;20030;-62
2022/08/03 12:08:06;;;;;;;24.13;18.15;;;;;;;;;;5013783;28;20091;-60
2022/08/03 12:10:32;;;;;;;22.40;18.08;;;;;;;;;;5012691;28;20490;-65
2022/08/03 12:12:59;;;;;;;22.10;17.88;;;;;;;;;;5033953;28;20083;-63
2022/08/03 12:15:32;;;;;;;20.83;17.50;;;;;;;;;;5035364;28;20441;-64
2022/08/03 12:17:58;;;;;;;19.95;17.45;;;;;;;;;;5036297;28;20022;-64
2022/08/03 12:20:26;;;;;;;22.65;17.83;;;;;;;;;;5036708;28;20030;-64
2022/08/03 12:22:52;;;;;;;21.80;17.38;;;;;;;;;;5037907;28;20067;-63
2022/08/03 12:25:26;;;;;;;21.02;17.60;;;;;;;;;;5037268;28;20049;-64
2022/08/03 12:27:53;;;;;;;24.38;17.65;;;;;;;;;;5036952;28;20176;-63
2022/08/03 12:30:19;;;;;;;22.65;17.33;;;;;;;;;;5038641;28;20156;-64
2022/08/03 12:32:45;;;;;;;21.05;17.13;;;;;;;;;;5040597;28;20021;-64
2022/08/03 12:35:22;;;;;;;20.30;17.65;;;;;;;;;;5038600;28;20033;-63
2022/08/03 12:37:48;;;;;;;20.20;17.75;;;;;;;;;;5038630;28;20029;-64
2022/08/03 12:40:15;;;;;;;21.30;17.95;;;;;;;;;;5037162;28;20026;-63
2022/08/03 12:42:41;;;;;;;20.30;17.77;;;;;;;;;;5036260;28;20022;-63
2022/08/03 12:45:27;;;;;;;21.63;16.92;;;;;;;;;;5035275;28;20421;-63
2022/08/03 12:47:59;;;;;;;21.38;17.70;;;;;;;;;;5035137;28;20032;-64
2022/08/03 12:50:29;;;;;;;23.00;18.52;;;;;;;;;;5036556;28;20037;-64
2022/08/03 12:52:56;;;;;;;21.05;17.23;;;;;;;;;;5036950;28;20025;-64
2022/08/03 12:55:23;;;;;;;20.35;17.67;;;;;;;;;;5038801;28;20112;-64
2022/08/03 12:57:49;;;;;;;21.35;17.42;;;;;;;;;;5037223;28;20033;-63
2022/08/03 13:00:17;;;;;;;23.30;17.95;;;;;;;;;;5037387;28;20021;-63
2022/08/03 13:02:43;;;;;;;;;;;;;;;;;;5036162;28;20400;-63
2022/08/03 13:05:10;;;;;;;22.50;17.67;;;;;;;;;;5034774;28;19905;-63
2022/08/03 13:07:40;;;;;;;21.83;18.30;;;;;;;;;;5030976;28;20037;-64
2022/08/03 13:10:07;;;;;;;23.02;17.77;;;;;;;;;;5032602;28;20117;-64
2022/08/03 13:12:34;;;;;;;20.40;17.38;;;;;;;;;;5031065;28;20445;-64
2022/08/03 13:15:00;;;;;;;;;;;;;;;;;;5033049;28;20029;-64
2022/08/03 13:17:27;;;;;;;21.65;17.90;;;;;;;;;;5032065;28;20012;-63
2022/08/03 13:19:53;;;;;;;22.40;17.60;;;;;;;;;;5032738;28;20013;-63
2022/08/03 13:22:21;;;;;;;22.23;17.92;;;;;;;;;;5032296;28;20482;-63
2022/08/03 13:24:48;;;;;;;19.83;17.17;;;;;;;;;;5032197;28;20034;-64
2022/08/03 13:27:15;;;;;;;22.58;17.85;;;;;;;;;;5032022;28;20057;-62
2022/08/03 13:29:42;;;;;;;21.38;17.58;;;;;;;;;;5032511;28;20474;-64
2022/08/03 13:32:08;;;;;;;28.02;17.85;;;;;;;;;;5032552;28;20021;-65
2022/08/03 13:34:35;;;;;;;20.88;17.27;;;;;;;;;;5031281;28;20056;-63
2022/08/03 13:37:01;;;;;;;20.00;17.45;;;;;;;;;;5040732;28;20051;-62
2022/08/03 13:39:27;;;;;;;19.00;17.00;;;;;;;;;;5049526;28;20025;-62
2022/08/03 13:41:53;;;;;;;21.88;17.13;;;;;;;;;;5041228;28;20033;-64
2022/08/03 13:44:19;;;;;;;20.98;17.30;;;;;;;;;;5034342;28;20430;-62
2022/08/03 13:46:45;;;;;;;22.33;17.27;;;;;;;;;;5031964;28;20470;-63
2022/08/03 13:49:11;;;;;;;26.23;18.65;;;;;;;;;;5031536;28;20033;-63
2022/08/03 13:51:38;;;;;;;19.88;17.17;;;;;;;;;;5031692;28;20032;-63
2022/08/03 13:54:04;;;;;;;23.20;17.65;;;;;;;;;;5032149;28;20026;-63
2022/08/03 13:56:30;;;;;;;21.70;17.95;;;;;;;;;;5032193;28;20103;-64
2022/08/03 13:58:56;;;;;;;18.95;16.80;;;;;;;;;;5031170;28;20033;-63
2022/08/03 14:01:22;;;;;;;19.85;16.90;;;;;;;;;;5031584;28;20116;-64
2022/08/03 14:03:52;;;;;;;19.75;17.02;;;;;;;;;;5032929;28;20393;-60
2022/08/03 14:06:19;;;;;;;23.35;17.10;;;;;;;;;;5031703;28;20079;-65
2022/08/03 14:08:46;;;;;;;20.27;17.17;;;;;;;;;;5029418;28;20025;-66
2022/08/03 14:11:13;;;;;;;19.83;16.73;;;;;;;;;;5031581;28;20048;-67
2022/08/03 14:13:39;;;;;;;21.23;17.52;;;;;;;;;;5030208;28;20120;-66
2022/08/03 14:16:05;;;;;;;19.88;17.17;;;;;;;;;;5031575;28;20048;-66
2022/08/03 14:18:31;;;;;;;21.35;17.30;;;;;;;;;;5030511;28;20475;-67
2022/08/03 14:20:57;;;;;;;21.90;17.40;;;;;;;;;;5026936;28;20052;-70
2022/08/03 14:23:23;;;;;;;20.98;17.38;;;;;;;;;;5021056;28;20532;-66
2022/08/03 14:25:49;;;;;;;19.23;17.20;;;;;;;;;;5020045;28;20037;-66
2022/08/03 14:28:15;;;;;;;21.60;17.67;;;;;;;;;;5010642;28;20030;-67
2022/08/03 14:30:41;;;;;;;21.17;17.33;;;;;;;;;;5011589;28;20455;-66